Timeline UpdatesTrip UpdatesNews PostsPvt PostsTravel TipsAdmin PostsConv PostsFollowed PostsChat RequestsBlog PostsPNR Posts

Disclaimer
Search
 
 
Fri Apr 18, 2014 05:48:22 ISTHomeTrainsΣChainsAtlasPNRForumGalleryNewsFAQTripsMembersLoginFeedback
No Recent News for this Train
Other Trains in the News **new
Latest...
⇐ Return Journey: Train# 58117

58118/Gondia-Jharsuguda Passenger (UnReserved)

Sep 11 2013 (10:54PM)
Change Departure Station:
Change Arrival Station:
Post a Train Travel TipPost a Train Travel Tip **new
Post a Comment/Question/Picture/VideoPost a Comment/Question/Picture/Video
Pantry/Catering
???
RSA - Rake Sharing
Rake/Coach Composition
Loco
BIA WAM-4
News    PNR    Forum    Time-Table    Availability    Fare Chart    Map    Arr/Dep History    Trips    Gallery    ΣChains    X/O    Timeline    
Travel Time: 3h 10m    15 halts    Distance: 135 km    Avg Speed: 42 km/hr
Type: Passenger
Zone: SER/South Eastern
Departs @ 05:00 (Avg 8m late)
Platform# ???
SMTWTFS
Gondia Junction/G 
Arrives @ 08:10 (Avg 17m late)
Platform# ???
SMTWTFS
Durg Junction/DURG 

15 halts. 15 intermediate Stations between Gondia Junction and Durg Junction

Show ALL intermediate Stations  Show Old Time-Table

#CodeStation NameX/OArrivesAvgDepartsAvgHaltPFDay#KmSpeedElevZoneAddress
1Gondia Junction (7)»  -05:00+8--10.071316mSECRGondia 441601, Maharashtra
2GDMGudma (2)  05:10+1305:11+141m--111.973323mSECRGondia, Maharashtra
3AGNAmgaon (2)X  05:20+1505:22+162m--122.872317mSECRGondia, Maharashtra
4DNLDhanoli (2)X  05:28+1605:29+161m--130.164310mSECRAmgaon, Maharashtra
5SKSSalekasa (2)X  05:36+1605:38+172m--137.553312mSECRRajnandgaon, Chhattisgarh
6DKSDarekasa (2)  05:51+1705:52+201m--149.166381mSECRRajnandgaon, Chhattisgarh
7BTLBortalao (2)  05:59+2106:00+231m--156.844409mSECRRajnandgaon, Chhattisgarh
8PJBPaniajob (2)X  06:12+2006:13+221m--165.638398mSECRRajnandgaon, Chhattisgarh
9DGGDongargarh (2)O  06:25+2006:35+1910m--173.365353mSECRDongargarh, Chhattisgarh
10JTRJatkanharO  06:41+2006:42+211m--179.840330mSECRRajnandgaon, Chhattisgarh
11MUAMusraX  06:52+1706:54+182m--186.459325mSECRRajnandgaon, Chhattisgarh
12BAKLBakal  07:02+1707:03+171m--194.353315mSECRRajnandgaon, Chhattisgarh
13RJNRaj Nandgaon (3)X  07:15+1507:20+145m--1104.859313mSECRRajnandgaon, Chhattisgarh
14PMSParmalkasa  07:28+1307:29+131m--1112.770300mSECRRajnandgaon, Chhattisgarh
15MUPMurhipar  07:35+1307:37+132m--1119.864319mSECRRajnandgaon, Chhattisgarh
16RSMRasmaraX  07:44+1307:45+141m--1127.219292mSECRRasmada, Chhattisgarh
17DURG•Durg Junction (6)•  08:10+1708:15+195m--1135.339299mSECRPh: 91-788-2322059, Chhattisgarh
18BQRBhilai Nagar (2)X  08:22+2008:24+202m--1139.853298mSECRBhilai, Chhattisgarh
19BPHBBhilai Power House (3)X  08:29+2008:31+202m--1144.256312mSECRBhilai, Chhattisgarh
20BIABhilaiX  08:36+2008:38+202m--1148.841309mSECRBhilai, Chhattisgarh
21KMIKumhariX  08:54+2508:56+262m--1159.862287mSECRKumhari, Chhattisgarh
22SZBSarona Cabin (2)  09:02+2709:04+292m--1166.048282mSECRRaipur, Chhattisgarh
23SRWNSaraswatinagarX  09:09+2609:11+262m--1169.915291mSECRRaipur, Chhattisgarh
24RRaipur Junction (6)  09:20+2109:27+247m--1172.231297mSECRRaipur, Chhattisgarh
25WRCWRS Colony PH  09:32+3109:33+311m--1174.830286mSECRRaipur, Chhattisgarh
26URKUrkuraX  09:39+3109:41+312m--1177.886275mSECRRaipur, Chhattisgarh
27MDHMandhar  09:47+3409:49+352m--1186.464281mSECRDonde Kalan, Chhattisgarh
28SLHSiliariX  09:58+3810:00+422m--1195.951280mSECRBanjari Rd, Chhattisgarh
29TLDTilda (3)  10:17+4610:19+472m--1210.449291mSECRBanjari Rd, Chhattisgarh
30HNHathbandhX  10:32+4510:34+462m--1221.184283mSECRRaipur, Chhattisgarh
31BYTBhatapara (4)XO  10:45+4910:47+502m--1236.480270mSECRBanjari Road, Chhattisgarh
32NPINipaniaX  10:58+5411:00+552m--1251.238259mSECRNational Highway 200, Chhattisgarh
33DGSDagoriO  11:13+5311:15+542m--1259.477254mSECRCollege Road, Chhattisgarh
34BYLBelhaX  11:21+5511:23+562m--1267.170269mSECRCollege Road, Chhattisgarh
35CHBTChakarbhatha  11:28+1:0111:30+1:012m--1272.937285mSECRBilaspur, Chhattisgarh
36DPHDadhaparaX  11:35+5811:40+585m--1276.04272mSECRBilaspur, Chhattisgarh
37BSPBilaspur Junction (8)  13:15+813:45+730m21282.643271mSECRBilaspur, Chhattisgarh
38GTWGatora  13:54+813:57+73m--1289.157268mSECRBilaspur, Chhattisgarh
39JRMGJairamnagar  14:05+714:07+82m--1296.867272mSECRNational Highway 200, Chhattisgarh
40KTSHKotmi Sonar Halt  14:13+1214:15+122m--1303.564266mSECRKotmisunar, Chhattisgarh
41AKTAkaltara (4)  14:21+1314:23+162m--1309.966284mSECRDist. Janjgir Champa, Chhattisgarh
42KPNAKapan (1)X  14:30+1514:32+152m11317.633263mSECRNational Highway 200, Chhattisgarh
43NIANaila  14:45+1414:50+135m--1324.843273mSECRJanjgir, Chhattisgarh
44CPHChampa Junction (3)X  15:05+1315:20+1315m--1335.767264mSECRNational Highway 200 (07819-245767), Chhattisgarh
45SGRDSaragaon RoadX  15:28+1715:30+172m--1344.649254mSECRNational Highway 200, Chhattisgarh
46BUABaradwar  15:38+1715:40+222m--1351.271256mSECRJanjgir-Champa, Chhattisgarh
47JDDAJethaXO  15:46+1115:48+112m--1358.317244mSECRNational Highway 200, Chhattisgarh
48SKTSakti (4)X  16:15+916:30+815m--1366.076237mSECRJanjgir-Champa, Chhattisgarh
49JDIJharradihX  16:38+1116:40+112m--1376.217247mSECRRaigarh, Chhattisgarh
50KHSKharsiaX  16:58+317:03+55m--1381.473259mSECRNational Highway 200, Chhattisgarh
51ROBRobertson  17:10+717:12+72m--1389.968239mSECRRaigarh, Chhattisgarh
52BEFBhupdeopur  17:20+917:22+112m--1399.079243mSECRRaigarh, Chhattisgarh
53KDTRKirodimalnagar  17:29+1617:31+172m--1408.231240mSECRRaigarh, Chhattisgarh
54RIGRaigarh (3)  17:45+1517:55+1610m--1415.473220mSECRRaigarh, Chhattisgarh
55KRLKotarlia  18:03+2118:05+232m--1425.1102229mSECRRaigarh, Chhattisgarh
56JMGJamgaX  18:10+2518:12+362m--1433.645233mSECRJamga Station, Chhattisgarh
57DAODaghora  18:28+3118:30+312m--1445.656269mSECRRaigarh, Chhattisgarh
58HGRHimgir  18:38+3118:40+362m--1453.081275mSECRNational Highway 200, Chhattisgarh
59BPHBelpaharO  18:50+3818:52+452m--1466.530235mSECRBelpahar, Odisha
60BRJNBrajrajnagarO  19:10+4019:15+395m--1475.420212mSECRBrajrajnagar, Odisha
61IBIb  19:23+3319:25+372m--1478.011207mSECRJharsuguda, Odisha
62JSGJharsuguda Junction (5)  20:15+18---1487.0-236mSERJharsuguda, Odisha
Scroll to Top
Scroll to Bottom